createdAt,value
2019-04-22T00:01:51.340Z,19.07
2019-04-22T00:04:32.373Z,14.50
2019-04-22T00:07:15.954Z,23.67
2019-04-22T00:09:51.507Z,25.73
2019-04-22T00:12:22.280Z,16.40
2019-04-22T00:14:48.333Z,17.60
2019-04-22T00:17:25.094Z,17.43
2019-04-22T00:19:57.655Z,20.67
2019-04-22T00:25:03.485Z,16.90
2019-04-22T00:27:28.168Z,18.50
2019-04-22T00:32:41.879Z,15.83
2019-04-22T00:35:11.545Z,17.23
2019-04-22T00:37:54.053Z,14.80
2019-04-22T00:40:21.063Z,16.97
2019-04-22T00:42:47.438Z,20.87
2019-04-22T00:45:21.880Z,16.40
2019-04-22T00:47:50.368Z,20.13
2019-04-22T00:50:23.554Z,18.60
2019-04-22T00:52:59.821Z,17.50
2019-04-22T00:55:29.265Z,20.03
2019-04-22T00:57:56.231Z,19.50
2019-04-22T01:00:25.084Z,18.77
2019-04-22T01:03:01.667Z,18.97
2019-04-22T01:05:28.913Z,17.60
2019-04-22T01:07:57.079Z,15.43
2019-04-22T01:10:33.853Z,17.87
2019-04-22T01:13:04.704Z,20.80
2019-04-22T01:15:34.317Z,16.53
2019-04-22T01:18:02.454Z,15.67
2019-04-22T01:21:01.651Z,18.90
2019-04-22T01:23:06.364Z,16.27
2019-04-22T01:25:30.541Z,19.53
2019-04-22T01:27:58.283Z,23.07
2019-04-22T01:30:27.885Z,15.70
2019-04-22T01:32:52.078Z,20.97
2019-04-22T01:35:32.107Z,15.43
2019-04-22T01:38:08.046Z,16.40
2019-04-22T01:40:45.542Z,19.80
2019-04-22T01:43:24.881Z,18.07
2019-04-22T01:45:49.786Z,16.03
2019-04-22T01:48:17.951Z,16.67
2019-04-22T01:50:49.705Z,18.20
2019-04-22T01:53:27.605Z,20.77
2019-04-22T01:55:54.196Z,16.33
2019-04-22T01:58:20.342Z,18.10
2019-04-22T02:01:13.622Z,16.73
2019-04-22T02:03:38.376Z,16.17
2019-04-22T02:05:59.261Z,18.43
2019-04-22T02:08:40.852Z,17.50
2019-04-22T02:11:01.088Z,16.00
2019-04-22T02:13:38.250Z,16.73
2019-04-22T02:16:06.689Z,16.97
2019-04-22T02:18:39.323Z,16.10
2019-04-22T02:21:03.150Z,19.20
2019-04-22T02:26:07.150Z,17.30
2019-04-22T02:31:26.100Z,18.20
2019-04-22T02:36:22.989Z,15.63
2019-04-22T02:38:59.032Z,20.13
2019-04-22T02:44:08.198Z,15.13
2019-04-22T02:46:34.986Z,14.87
2019-04-22T02:51:21.944Z,15.60
2019-04-22T02:54:27.160Z,21.90
2019-04-22T03:01:31.482Z,18.33
2019-04-22T03:09:07.277Z,18.07
2019-04-22T03:11:33.805Z,19.60
2019-04-22T03:16:40.291Z,20.10
2019-04-22T03:19:17.774Z,17.47
2019-04-22T03:26:40.934Z,20.43
2019-04-22T03:29:13.336Z,17.23
2019-04-22T03:37:21.431Z,20.23
2019-04-22T03:42:07.133Z,25.97
2019-04-22T03:49:45.348Z,17.67
2019-04-22T03:52:10.866Z,16.50
2019-04-22T03:55:00.761Z,17.20
2019-04-22T03:57:32.768Z,16.87
2019-04-22T03:59:41.558Z,18.33
2019-04-22T04:02:21.434Z,15.77
2019-04-22T04:04:39.191Z,19.13
2019-04-22T04:07:20.479Z,21.27
2019-04-22T04:12:13.924Z,20.93
2019-04-22T04:17:26.225Z,20.40
2019-04-22T04:20:06.065Z,18.03
2019-04-22T04:22:30.606Z,19.93
2019-04-22T04:30:13.705Z,17.50
2019-04-22T04:37:42.280Z,17.27
2019-04-22T04:40:05.735Z,19.10
2019-04-22T04:45:25.804Z,17.40
2019-04-22T04:47:43.579Z,26.80
2019-04-22T04:57:43.572Z,18.33
2019-04-22T05:00:32.330Z,16.03
2019-04-22T05:02:52.199Z,16.83
2019-04-22T05:10:26.353Z,16.67
2019-04-22T05:15:21.182Z,18.70
2019-04-22T05:17:55.466Z,14.63
2019-04-22T05:20:33.735Z,16.67
2019-04-22T05:22:41.215Z,14.70
2019-04-22T05:25:15.120Z,15.97
2019-04-22T05:30:23.644Z,21.17
2019-04-22T05:32:44.611Z,17.43
2019-04-22T05:35:14.487Z,18.00
2019-04-22T05:37:54.349Z,13.77
2019-04-22T05:40:20.242Z,18.97
2019-04-22T05:42:54.628Z,16.90
2019-04-22T05:45:23.100Z,15.70
2019-04-22T05:47:52.246Z,15.40
2019-04-22T05:50:18.963Z,16.83
2019-04-22T05:52:54.209Z,22.77
2019-04-22T05:55:33.173Z,18.57
2019-04-22T05:57:59.157Z,14.07
2019-04-22T06:03:07.218Z,17.20
2019-04-22T06:05:31.905Z,18.03
2019-04-22T06:08:02.435Z,18.07
2019-04-22T06:10:39.354Z,16.93
2019-04-22T06:13:01.021Z,19.93
2019-04-22T06:15:36.309Z,16.97
2019-04-22T06:18:16.282Z,18.27
2019-04-22T06:20:53.229Z,16.20
2019-04-22T06:23:25.613Z,16.00
2019-04-22T06:28:35.222Z,19.17
2019-04-22T06:31:00.582Z,16.23
2019-04-22T06:33:30.217Z,16.57
2019-04-22T06:35:56.369Z,18.07
2019-04-22T06:38:41.527Z,15.80
2019-04-22T06:41:07.419Z,22.63
2019-04-22T06:43:28.242Z,15.07
2019-04-22T06:46:04.228Z,13.30
2019-04-22T06:48:29.521Z,9.93
2019-04-22T06:51:04.638Z,13.43
2019-04-22T06:53:34.434Z,12.67
2019-04-22T06:56:05.109Z,11.47
2019-04-22T06:58:34.943Z,11.90
2019-04-22T07:01:09.820Z,10.73
2019-04-22T07:03:50.561Z,11.40
2019-04-22T07:06:27.883Z,17.77
2019-04-22T07:11:06.199Z,13.23
2019-04-22T07:13:43.012Z,12.40
2019-04-22T07:16:13.727Z,11.10
2019-04-22T07:18:45.399Z,13.63
2019-04-22T07:21:15.911Z,11.33
2019-04-22T07:23:55.550Z,12.50
2019-04-22T07:26:16.218Z,9.93
2019-04-22T07:28:49.168Z,14.80
2019-04-22T07:31:15.782Z,12.07
2019-04-22T07:33:51.979Z,12.07
2019-04-22T07:36:44.470Z,13.53
2019-04-22T07:38:48.941Z,15.57
2019-04-22T07:41:20.069Z,12.40
2019-04-22T07:44:10.349Z,9.90
2019-04-22T07:46:26.588Z,15.00
2019-04-22T07:48:57.704Z,14.13
2019-04-22T07:51:29.517Z,16.50
2019-04-22T07:53:55.855Z,13.17
2019-04-22T07:56:30.578Z,10.67
2019-04-22T07:59:07.637Z,11.63
2019-04-22T08:01:30.849Z,13.30
2019-04-22T08:04:09.886Z,11.07
2019-04-22T08:06:38.502Z,13.10
2019-04-22T08:09:08.000Z,12.70
2019-04-22T08:14:07.556Z,9.40
2019-04-22T08:16:43.743Z,12.20
2019-04-22T08:19:18.767Z,8.77
2019-04-22T08:21:46.265Z,10.40
2019-04-22T08:24:30.566Z,11.80
2019-04-22T08:26:46.780Z,9.87
2019-04-22T08:29:21.685Z,9.40
2019-04-22T08:31:49.274Z,8.47
2019-04-22T08:39:18.855Z,8.13
2019-04-22T08:41:40.142Z,11.40
2019-04-22T08:44:37.716Z,7.87
2019-04-22T08:47:02.373Z,7.97
2019-04-22T08:49:30.672Z,6.83
2019-04-22T08:51:56.200Z,10.40
2019-04-22T08:54:24.508Z,9.90
2019-04-22T08:56:56.807Z,9.70
2019-04-22T08:59:21.815Z,7.40
2019-04-22T09:01:59.662Z,8.80
2019-04-22T09:04:27.599Z,11.33
2019-04-22T09:07:18.274Z,7.10
2019-04-22T09:09:33.928Z,7.27
2019-04-22T09:12:07.637Z,7.40
2019-04-22T09:14:37.962Z,5.90
2019-04-22T09:17:13.412Z,8.50
2019-04-22T09:19:38.578Z,5.70
2019-04-22T09:22:11.282Z,9.17
2019-04-22T09:24:43.444Z,7.60
2019-04-22T09:27:22.645Z,6.80
2019-04-22T09:32:20.205Z,8.60
2019-04-22T09:34:56.359Z,11.53
2019-04-22T09:37:20.417Z,6.80
2019-04-22T09:39:51.978Z,10.17
2019-04-22T09:42:17.201Z,8.43
2019-04-22T09:44:49.162Z,8.53
2019-04-22T09:47:19.382Z,6.13
2019-04-22T09:49:55.428Z,7.93
2019-04-22T09:52:26.417Z,5.23
2019-04-22T09:54:59.660Z,7.60
2019-04-22T09:59:57.899Z,6.17
2019-04-22T10:05:06.396Z,10.20
2019-04-22T10:07:31.885Z,7.67
2019-04-22T10:10:03.306Z,6.80
2019-04-22T10:12:44.897Z,6.23
2019-04-22T10:15:00.150Z,6.80
2019-04-22T10:17:32.165Z,8.10
2019-04-22T10:20:03.972Z,6.90
2019-04-22T10:22:39.425Z,15.23
2019-04-22T10:25:03.328Z,8.37
2019-04-22T10:27:32.454Z,7.57
2019-04-22T10:30:04.225Z,6.00
2019-04-22T10:32:39.952Z,8.00
2019-04-22T10:35:08.185Z,8.07
2019-04-22T10:37:34.255Z,5.33
2019-04-22T10:40:07.726Z,6.70
2019-04-22T10:42:43.416Z,10.13
2019-04-22T10:45:14.521Z,6.10
2019-04-22T10:47:44.028Z,9.90
2019-04-22T10:50:16.531Z,5.77
2019-04-22T10:52:47.535Z,11.37
2019-04-22T10:55:17.321Z,6.00
2019-04-22T10:57:46.713Z,7.83
2019-04-22T11:00:17.672Z,7.13
2019-04-22T11:02:47.875Z,10.23
2019-04-22T11:05:17.714Z,7.00
2019-04-22T11:07:53.978Z,6.90
2019-04-22T11:10:35.355Z,9.00
2019-04-22T11:12:49.419Z,6.83
2019-04-22T11:15:19.213Z,6.43
2019-04-22T11:17:49.515Z,8.87
2019-04-22T11:20:21.807Z,6.23
2019-04-22T11:22:51.117Z,9.10
2019-04-22T11:25:21.666Z,8.33
2019-04-22T11:27:51.349Z,6.47
2019-04-22T11:30:24.322Z,10.20
2019-04-22T11:32:54.099Z,7.47
2019-04-22T11:35:23.840Z,5.70
2019-04-22T11:37:54.777Z,6.57
2019-04-22T11:40:33.879Z,6.90
2019-04-22T11:42:56.567Z,8.90
2019-04-22T11:45:27.067Z,6.23
2019-04-22T11:47:57.275Z,9.80
2019-04-22T11:50:28.062Z,11.00
2019-04-22T11:52:58.597Z,6.13
2019-04-22T11:55:28.737Z,11.07
2019-04-22T11:57:58.919Z,8.13
2019-04-22T12:00:32.868Z,7.60
2019-04-22T12:03:03.173Z,14.10
2019-04-22T12:05:34.209Z,12.67
2019-04-22T12:08:05.015Z,5.13
2019-04-22T12:10:42.446Z,10.27
2019-04-22T12:13:06.181Z,13.53
2019-04-22T12:15:37.318Z,6.63
2019-04-22T12:18:07.255Z,5.43
2019-04-22T12:20:37.207Z,7.20
2019-04-22T12:23:07.412Z,11.87
2019-04-22T12:25:47.645Z,6.93
2019-04-22T12:28:08.984Z,7.60
2019-04-22T12:30:39.431Z,9.53
2019-04-22T12:33:10.940Z,6.13
2019-04-22T12:35:39.844Z,5.03
2019-04-22T12:38:11.132Z,6.40
2019-04-22T12:40:49.371Z,6.03
2019-04-22T12:43:14.898Z,5.07
2019-04-22T12:45:44.719Z,6.30
2019-04-22T12:48:15.056Z,5.90
2019-04-22T12:50:46.473Z,5.83
2019-04-22T12:53:19.761Z,7.20
2019-04-22T12:55:47.961Z,5.17
2019-04-22T12:58:18.084Z,5.60
2019-04-22T13:00:48.459Z,7.83
2019-04-22T13:03:18.214Z,5.27
2019-04-22T13:05:49.319Z,6.83
2019-04-22T13:08:19.994Z,5.33
2019-04-22T13:11:01.003Z,5.00
2019-04-22T13:13:27.064Z,7.03
2019-04-22T13:15:59.447Z,6.70
2019-04-22T13:18:37.427Z,8.43
2019-04-22T13:21:00.383Z,7.63
2019-04-22T13:23:31.664Z,7.23
2019-04-22T13:26:01.193Z,6.10
2019-04-22T13:28:31.473Z,6.67
2019-04-22T13:31:02.043Z,5.00
2019-04-22T13:33:32.887Z,5.30
2019-04-22T13:36:03.644Z,7.97
2019-04-22T13:38:33.255Z,8.93
2019-04-22T13:41:16.497Z,5.40
2019-04-22T13:43:34.754Z,6.30
2019-04-22T13:46:05.604Z,5.50
2019-04-22T13:48:59.041Z,5.50
2019-04-22T13:51:39.044Z,5.23
2019-04-22T13:56:32.790Z,8.93
2019-04-22T13:58:54.084Z,4.60
2019-04-22T14:01:14.616Z,13.60
2019-04-22T14:03:58.755Z,4.83
2019-04-22T14:06:29.154Z,4.87
2019-04-22T14:08:59.023Z,4.30
2019-04-22T14:11:37.650Z,8.50
2019-04-22T14:14:00.819Z,4.90
2019-04-22T14:16:31.137Z,6.20
2019-04-22T14:19:02.020Z,5.20
2019-04-22T14:21:32.674Z,6.30
2019-04-22T14:24:03.076Z,5.53
2019-04-22T14:26:44.136Z,7.50
2019-04-22T14:29:04.131Z,8.20
2019-04-22T14:31:33.644Z,6.90
2019-04-22T14:34:05.400Z,6.50
2019-04-22T14:36:35.232Z,4.63
2019-04-22T14:39:08.097Z,4.87
2019-04-22T14:41:55.062Z,9.23
2019-04-22T14:45:12.010Z,5.53
2019-04-22T14:47:10.363Z,5.50
2019-04-22T14:49:37.061Z,5.60
2019-04-22T14:52:05.253Z,5.77
2019-04-22T14:54:28.483Z,8.40
2019-04-22T14:56:44.530Z,5.47
2019-04-22T14:59:14.088Z,5.80
2019-04-22T15:01:43.610Z,5.60
2019-04-22T15:04:13.321Z,6.53
2019-04-22T15:06:45.144Z,5.70
2019-04-22T15:09:14.434Z,7.90
2019-04-22T15:11:56.939Z,7.53
2019-04-22T15:14:15.273Z,6.67
2019-04-22T15:17:04.957Z,4.90
2019-04-22T15:19:53.992Z,7.33
2019-04-22T15:22:23.428Z,6.00
2019-04-22T15:24:52.742Z,5.00
2019-04-22T15:27:22.714Z,6.07
2019-04-22T15:29:53.344Z,4.63
2019-04-22T15:32:23.285Z,4.60
2019-04-22T15:34:53.403Z,5.73
2019-04-22T15:37:24.258Z,5.83
2019-04-22T15:39:56.312Z,4.43
2019-04-22T15:42:28.762Z,4.30
2019-04-22T15:44:55.968Z,4.40
2019-04-22T15:47:27.035Z,5.63
2019-04-22T15:49:56.454Z,6.87
2019-04-22T15:52:33.814Z,6.00
2019-04-22T15:54:58.427Z,5.83
2019-04-22T15:57:28.911Z,5.67
2019-04-22T16:00:14.442Z,4.13
2019-04-22T16:02:29.836Z,6.40
2019-04-22T16:04:59.387Z,6.47
2019-04-22T16:07:29.732Z,5.57
2019-04-22T16:09:59.646Z,9.00
2019-04-22T16:12:38.868Z,4.67
2019-04-22T16:15:03.053Z,4.23
2019-04-22T16:17:32.683Z,4.80
2019-04-22T16:20:03.673Z,5.10
2019-04-22T16:22:51.972Z,5.23
2019-04-22T16:25:41.044Z,5.93
2019-04-22T16:28:11.337Z,7.23
2019-04-22T16:30:41.389Z,6.60
2019-04-22T16:33:10.908Z,5.70
2019-04-22T16:35:40.569Z,5.00
2019-04-22T16:38:10.887Z,4.50
2019-04-22T16:40:40.849Z,3.50
2019-04-22T16:43:13.122Z,7.03
2019-04-22T16:45:41.215Z,6.27
2019-04-22T16:48:11.595Z,10.27
2019-04-22T16:50:43.249Z,5.70
2019-04-22T16:53:12.474Z,6.47
2019-04-22T16:55:44.535Z,8.93
2019-04-22T16:58:14.823Z,3.83
2019-04-22T17:00:46.794Z,5.47
2019-04-22T17:03:42.638Z,7.03
2019-04-22T17:06:23.420Z,5.07
2019-04-22T17:08:52.946Z,6.77
2019-04-22T17:11:22.340Z,4.00
2019-04-22T17:13:53.024Z,7.03
2019-04-22T17:16:24.182Z,6.63
2019-04-22T17:18:54.240Z,5.50
2019-04-22T17:21:23.780Z,7.33
2019-04-22T17:23:53.957Z,5.40
2019-04-22T17:26:24.372Z,5.07
2019-04-22T17:28:53.861Z,4.07
2019-04-22T17:31:23.148Z,4.63
2019-04-22T17:33:53.007Z,5.00
2019-04-22T17:36:22.612Z,5.73
2019-04-22T17:39:01.176Z,3.70
2019-04-22T17:41:38.805Z,3.80
2019-04-22T17:44:18.832Z,7.33
2019-04-22T17:46:50.996Z,9.20
2019-04-22T17:49:57.863Z,4.97
2019-04-22T17:52:21.222Z,6.00
2019-04-22T17:54:50.392Z,6.57
2019-04-22T17:57:21.626Z,4.13
2019-04-22T17:59:50.640Z,6.77
2019-04-22T18:05:53.794Z,4.70
2019-04-22T18:08:45.967Z,4.50
2019-04-22T18:11:32.004Z,4.97
2019-04-22T18:13:51.864Z,5.30
2019-04-22T18:16:25.921Z,4.13
2019-04-22T18:18:53.051Z,6.90
2019-04-22T18:21:25.120Z,4.60
2019-04-22T18:23:43.698Z,4.30
2019-04-22T18:26:27.652Z,4.73
2019-04-22T18:29:02.150Z,4.10
2019-04-22T18:31:21.773Z,5.97
2019-04-22T18:33:54.515Z,7.50
2019-04-22T18:36:31.453Z,5.20
2019-04-22T18:39:06.328Z,4.20
2019-04-22T18:41:30.710Z,4.40
2019-04-22T18:44:08.309Z,6.43
2019-04-22T18:46:33.823Z,7.23
2019-04-22T18:49:07.283Z,6.60
2019-04-22T18:51:46.276Z,6.57
2019-04-22T18:54:22.703Z,10.33
2019-04-22T18:56:58.450Z,4.60
2019-04-22T18:59:17.479Z,6.00
2019-04-22T19:01:41.909Z,6.03
2019-04-22T19:04:19.410Z,5.33
2019-04-22T19:07:04.269Z,6.10
2019-04-22T19:09:41.593Z,4.90
2019-04-22T19:14:46.791Z,6.10
2019-04-22T19:17:21.560Z,8.67
2019-04-22T19:19:47.963Z,6.30
2019-04-22T19:22:14.866Z,5.67
2019-04-22T19:24:41.849Z,7.90
2019-04-22T19:27:15.326Z,6.10
2019-04-22T19:29:52.630Z,9.30
2019-04-22T19:32:20.582Z,6.23
2019-04-22T19:34:47.773Z,5.13
2019-04-22T19:37:22.613Z,10.17
2019-04-22T19:40:01.164Z,5.57
2019-04-22T19:42:34.805Z,8.70
2019-04-22T19:44:55.221Z,3.87
2019-04-22T19:47:35.985Z,4.53
2019-04-22T19:50:09.393Z,5.30
2019-04-22T19:52:28.670Z,5.30
2019-04-22T19:55:02.889Z,4.77
2019-04-22T19:57:32.530Z,4.43
2019-04-22T19:59:55.877Z,8.83
2019-04-22T20:02:51.169Z,4.60
2019-04-22T20:05:37.201Z,6.30
2019-04-22T20:08:07.196Z,3.63
2019-04-22T20:10:39.921Z,8.10
2019-04-22T20:13:10.116Z,9.53
2019-04-22T20:15:29.277Z,4.40
2019-04-22T20:20:49.296Z,7.93
2019-04-22T20:23:05.355Z,8.13
2019-04-22T20:25:40.769Z,5.17
2019-04-22T20:28:12.797Z,5.33
2019-04-22T20:30:47.870Z,11.33
2019-04-22T20:33:10.732Z,4.10
2019-04-22T20:35:52.025Z,8.80
2019-04-22T20:38:20.014Z,6.17
2019-04-22T20:40:50.787Z,4.90
2019-04-22T20:43:33.756Z,5.47
2019-04-22T20:45:51.545Z,4.20
2019-04-22T20:48:13.010Z,4.10
2019-04-22T20:50:55.675Z,5.50
2019-04-22T20:53:30.165Z,5.87
2019-04-22T20:56:00.089Z,5.93
2019-04-22T20:58:28.281Z,3.97
2019-04-22T21:00:53.151Z,3.87
2019-04-22T21:03:24.339Z,4.87
2019-04-22T21:05:53.040Z,6.70
2019-04-22T21:08:38.602Z,9.60
2019-04-22T21:10:52.119Z,5.90
2019-04-22T21:13:27.807Z,4.27
2019-04-22T21:16:10.547Z,5.60
2019-04-22T21:18:30.815Z,8.60
2019-04-22T21:21:13.795Z,3.47
2019-04-22T21:23:40.868Z,5.43
2019-04-22T21:26:13.256Z,4.30
2019-04-22T21:28:47.636Z,3.83
2019-04-22T21:31:23.777Z,4.03
2019-04-22T21:33:48.974Z,3.23
2019-04-22T21:36:24.997Z,6.60
2019-04-22T21:38:51.608Z,3.90
2019-04-22T21:41:20.341Z,5.63
2019-04-22T21:43:56.216Z,7.00
2019-04-22T21:46:22.994Z,7.80
2019-04-22T21:48:59.716Z,4.77
2019-04-22T21:51:33.130Z,6.50
2019-04-22T21:54:08.512Z,5.60
2019-04-22T21:56:43.394Z,6.87
2019-04-22T21:59:07.900Z,5.60
2019-04-22T22:04:22.072Z,4.00
2019-04-22T22:06:45.027Z,5.23
2019-04-22T22:09:31.774Z,6.90
2019-04-22T22:11:59.733Z,6.57
2019-04-22T22:14:30.510Z,4.17
2019-04-22T22:16:54.735Z,4.00
2019-04-22T22:19:32.388Z,5.13
2019-04-22T22:22:28.483Z,8.73
2019-04-22T22:24:39.561Z,3.33
2019-04-22T22:27:12.722Z,5.10
2019-04-22T22:29:54.331Z,16.00
2019-04-22T22:32:12.466Z,6.10
2019-04-22T22:34:43.498Z,6.60
2019-04-22T22:37:03.504Z,4.07
2019-04-22T22:39:34.057Z,9.80
2019-04-22T22:41:52.081Z,11.43
2019-04-22T22:44:30.349Z,5.60
2019-04-22T22:47:14.422Z,6.53
2019-04-22T22:49:50.279Z,7.10
2019-04-22T22:52:40.904Z,4.80
2019-04-22T22:54:50.691Z,4.97
2019-04-22T22:57:21.462Z,7.90
2019-04-22T22:59:50.194Z,5.83
2019-04-22T23:02:20.475Z,4.47
2019-04-22T23:04:52.570Z,4.37
2019-04-22T23:07:29.009Z,9.53
2019-04-22T23:09:54.797Z,4.23
2019-04-22T23:12:36.211Z,4.70
2019-04-22T23:14:54.614Z,7.50
2019-04-22T23:17:11.835Z,4.80
2019-04-22T23:19:41.976Z,6.83
2019-04-22T23:22:20.587Z,15.30
2019-04-22T23:25:01.711Z,3.90
2019-04-22T23:27:56.918Z,8.63
2019-04-22T23:30:40.056Z,5.13
2019-04-22T23:33:24.525Z,5.67
2019-04-22T23:36:06.409Z,3.43
2019-04-22T23:38:38.759Z,6.83
2019-04-22T23:41:39.163Z,5.00
2019-04-22T23:44:01.019Z,5.57
2019-04-22T23:46:32.288Z,5.10
2019-04-22T23:49:04.558Z,13.73
2019-04-22T23:51:39.631Z,3.40
2019-04-22T23:54:13.258Z,3.43
2019-04-22T23:56:34.846Z,3.70
2019-04-22T23:59:19.664Z,4.10
